createdAt,value
2019-05-01T00:01:07.000Z,-1.50
2019-05-01T00:05:56.000Z,-1.57
2019-05-01T00:10:44.000Z,-1.65
2019-05-01T00:15:31.000Z,-1.74
2019-05-01T00:20:19.000Z,-1.81
2019-05-01T00:25:07.000Z,-1.88
2019-05-01T00:29:55.000Z,-1.96
2019-05-01T00:34:43.000Z,-2.03
2019-05-01T00:39:31.000Z,-2.10
2019-05-01T00:44:19.000Z,-2.15
2019-05-01T00:49:07.000Z,-2.14
2019-05-01T00:53:55.000Z,-2.19
2019-05-01T00:58:43.000Z,-2.27
2019-05-01T01:03:30.000Z,-2.33
2019-05-01T01:08:18.000Z,-2.36
2019-05-01T01:13:06.000Z,-2.30
2019-05-01T01:17:54.000Z,-2.26
2019-05-01T01:22:42.000Z,-2.22
2019-05-01T01:27:32.000Z,-2.21
2019-05-01T01:32:18.000Z,-2.18
2019-05-01T01:37:06.000Z,-2.17
2019-05-01T01:41:57.000Z,-2.20
2019-05-01T01:46:41.000Z,-2.16
2019-05-01T01:51:29.000Z,-2.11
2019-05-01T01:56:17.000Z,-2.09
2019-05-01T02:01:08.000Z,-2.10
2019-05-01T02:05:51.000Z,-2.11
2019-05-01T02:10:39.000Z,-2.04
2019-05-01T02:15:27.000Z,-1.92
2019-05-01T02:20:15.000Z,-1.82
2019-05-01T02:25:03.000Z,-1.84
2019-05-01T02:29:51.000Z,-1.93
2019-05-01T02:34:38.000Z,-2.01
2019-05-01T02:39:26.000Z,-2.08
2019-05-01T02:44:14.000Z,-2.13
2019-05-01T02:49:02.000Z,-2.17
2019-05-01T02:53:49.000Z,-2.26
2019-05-01T02:58:37.000Z,-2.33
2019-05-01T03:03:25.000Z,-2.38
2019-05-01T03:08:13.000Z,-2.41
2019-05-01T03:13:01.000Z,-2.47
2019-05-01T03:17:49.000Z,-2.54
2019-05-01T03:22:36.000Z,-2.58
2019-05-01T03:27:25.000Z,-2.64
2019-05-01T03:32:13.000Z,-2.66
2019-05-01T03:37:01.000Z,-2.70
2019-05-01T03:41:49.000Z,-2.76
2019-05-01T03:46:36.000Z,-2.83
2019-05-01T03:51:24.000Z,-2.87
2019-05-01T03:56:12.000Z,-2.87
2019-05-01T04:00:59.000Z,-2.86
2019-05-01T04:05:47.000Z,-2.82
2019-05-01T04:10:35.000Z,-2.79
2019-05-01T04:15:22.000Z,-2.79
2019-05-01T04:20:10.000Z,-2.75
2019-05-01T04:24:58.000Z,-2.67
2019-05-01T04:29:46.000Z,-2.60
2019-05-01T04:34:34.000Z,-2.48
2019-05-01T04:39:22.000Z,-2.27
2019-05-01T04:44:09.000Z,-1.77
2019-05-01T04:48:58.000Z,-1.18
2019-05-01T04:53:46.000Z,-0.74
2019-05-01T04:58:34.000Z,-0.36
2019-05-01T05:03:23.000Z,0.04
2019-05-01T05:08:11.000Z,0.61
2019-05-01T05:13:00.000Z,0.93
2019-05-01T05:17:48.000Z,1.45
2019-05-01T05:22:37.000Z,1.83
2019-05-01T05:27:25.000Z,2.14
2019-05-01T05:32:13.000Z,2.63
2019-05-01T05:37:02.000Z,3.24
2019-05-01T05:41:51.000Z,4.03
2019-05-01T05:46:39.000Z,4.76
2019-05-01T05:51:28.000Z,5.30
2019-05-01T05:56:17.000Z,6.03
2019-05-01T06:01:05.000Z,6.49
2019-05-01T06:05:54.000Z,7.40
2019-05-01T06:10:42.000Z,8.19
2019-05-01T06:15:31.000Z,9.20
2019-05-01T06:20:20.000Z,9.69
2019-05-01T06:25:09.000Z,9.56
2019-05-01T06:29:56.000Z,10.06
2019-05-01T06:34:45.000Z,11.09
2019-05-01T06:39:34.000Z,11.92
2019-05-01T06:44:23.000Z,12.69
2019-05-01T06:49:13.000Z,13.25
2019-05-01T06:54:01.000Z,13.87
2019-05-01T06:58:49.000Z,14.48
2019-05-01T07:03:38.000Z,15.38
2019-05-01T07:08:27.000Z,15.81
2019-05-01T07:13:14.000Z,14.78
2019-05-01T07:18:01.000Z,13.46
2019-05-01T07:22:48.000Z,12.71
2019-05-01T07:27:37.000Z,12.27
2019-05-01T07:32:24.000Z,12.03
2019-05-01T07:37:12.000Z,11.89
2019-05-01T07:42:01.000Z,11.87
2019-05-01T07:46:49.000Z,11.90
2019-05-01T07:51:37.000Z,12.05
2019-05-01T07:56:27.000Z,12.99
2019-05-01T08:01:15.000Z,13.80
2019-05-01T08:06:04.000Z,14.93
2019-05-01T08:10:52.000Z,15.49
2019-05-01T08:15:40.000Z,15.14
2019-05-01T08:20:28.000Z,14.67
2019-05-01T08:25:15.000Z,14.30
2019-05-01T08:30:03.000Z,13.92
2019-05-01T08:34:51.000Z,13.63
2019-05-01T08:39:39.000Z,13.44
2019-05-01T08:44:28.000Z,13.48
2019-05-01T08:49:15.000Z,13.70
2019-05-01T08:54:04.000Z,13.85
2019-05-01T08:58:52.000Z,14.14
2019-05-01T09:03:41.000Z,14.79
2019-05-01T09:08:30.000Z,15.61
2019-05-01T09:13:18.000Z,16.66
2019-05-01T09:18:09.000Z,17.30
2019-05-01T09:22:57.000Z,17.91
2019-05-01T09:27:47.000Z,18.52
2019-05-01T09:32:35.000Z,19.55
2019-05-01T09:37:24.000Z,20.80
2019-05-01T09:42:13.000Z,20.47
2019-05-01T09:47:01.000Z,19.73
2019-05-01T09:51:47.000Z,18.74
2019-05-01T09:56:35.000Z,18.08
2019-05-01T10:01:22.000Z,17.97
2019-05-01T10:06:11.000Z,18.72
2019-05-01T10:11:01.000Z,20.36
2019-05-01T10:15:51.000Z,22.04
2019-05-01T10:20:40.000Z,22.67
2019-05-01T10:25:26.000Z,21.40
2019-05-01T10:30:14.000Z,20.02
2019-05-01T10:35:00.000Z,19.14
2019-05-01T10:39:49.000Z,19.04
2019-05-01T10:44:38.000Z,20.40
2019-05-01T10:49:28.000Z,21.51
2019-05-01T10:54:16.000Z,21.66
2019-05-01T10:59:06.000Z,22.41
2019-05-01T11:03:55.000Z,23.27
2019-05-01T11:08:42.000Z,22.80
2019-05-01T11:13:31.000Z,22.82
2019-05-01T11:18:19.000Z,22.63
2019-05-01T11:23:09.000Z,24.33
2019-05-01T11:27:59.000Z,25.80
2019-05-01T11:32:49.000Z,27.24
2019-05-01T11:37:35.000Z,26.32
2019-05-01T11:42:23.000Z,25.04
2019-05-01T11:47:09.000Z,23.15
2019-05-01T11:51:56.000Z,22.05
2019-05-01T11:56:45.000Z,21.11
2019-05-01T12:01:31.000Z,20.11
2019-05-01T12:06:19.000Z,19.54
2019-05-01T12:11:07.000Z,19.20
2019-05-01T12:15:55.000Z,18.92
2019-05-01T12:20:44.000Z,18.83
2019-05-01T12:25:31.000Z,18.57
2019-05-01T12:30:19.000Z,18.50
2019-05-01T12:35:07.000Z,18.50
2019-05-01T12:39:56.000Z,18.98
2019-05-01T12:44:45.000Z,20.30
2019-05-01T12:49:36.000Z,22.73
2019-05-01T12:54:27.000Z,25.00
2019-05-01T12:59:17.000Z,26.59
2019-05-01T13:04:06.000Z,27.96
2019-05-01T13:08:55.000Z,28.33
2019-05-01T13:13:45.000Z,29.48
2019-05-01T13:18:32.000Z,27.98
2019-05-01T13:23:19.000Z,25.94
2019-05-01T13:28:06.000Z,24.34
2019-05-01T13:32:54.000Z,23.44
2019-05-01T13:37:42.000Z,23.63
2019-05-01T13:42:30.000Z,23.47
2019-05-01T13:47:18.000Z,22.84
2019-05-01T13:52:06.000Z,22.12
2019-05-01T13:56:54.000Z,21.66
2019-05-01T14:01:41.000Z,21.31
2019-05-01T14:06:30.000Z,20.95
2019-05-01T14:11:18.000Z,20.79
2019-05-01T14:16:06.000Z,20.70
2019-05-01T14:20:55.000Z,20.52
2019-05-01T14:25:44.000Z,20.44
2019-05-01T14:30:32.000Z,20.25
2019-05-01T14:35:20.000Z,20.14
2019-05-01T14:40:08.000Z,20.36
2019-05-01T14:44:56.000Z,20.71
2019-05-01T14:49:45.000Z,21.43
2019-05-01T14:54:34.000Z,22.37
2019-05-01T14:59:24.000Z,23.41
2019-05-01T15:04:11.000Z,22.70
2019-05-01T15:08:59.000Z,22.70
2019-05-01T15:13:50.000Z,24.00
2019-05-01T15:18:37.000Z,24.52
2019-05-01T15:23:24.000Z,23.34
2019-05-01T15:28:12.000Z,23.27
2019-05-01T15:33:01.000Z,22.77
2019-05-01T15:37:48.000Z,21.46
2019-05-01T15:42:35.000Z,20.41
2019-05-01T15:47:25.000Z,19.61
2019-05-01T15:52:11.000Z,19.06
2019-05-01T15:57:03.000Z,18.84
2019-05-01T16:01:46.000Z,18.63
2019-05-01T16:06:34.000Z,18.42
2019-05-01T16:11:22.000Z,18.37
2019-05-01T16:16:10.000Z,18.37
2019-05-01T16:20:59.000Z,18.35
2019-05-01T16:25:48.000Z,18.30
2019-05-01T16:30:35.000Z,18.05
2019-05-01T16:35:24.000Z,17.77
2019-05-01T16:40:11.000Z,17.62
2019-05-01T16:44:59.000Z,17.25
2019-05-01T16:49:47.000Z,16.93
2019-05-01T16:54:35.000Z,16.60
2019-05-01T16:59:23.000Z,16.32
2019-05-01T17:04:11.000Z,16.16
2019-05-01T17:08:58.000Z,16.08
2019-05-01T17:13:46.000Z,15.90
2019-05-01T17:18:34.000Z,15.72
2019-05-01T17:23:23.000Z,15.55
2019-05-01T17:28:11.000Z,15.39
2019-05-01T17:32:58.000Z,15.22
2019-05-01T17:37:47.000Z,15.05
2019-05-01T17:42:34.000Z,14.90
2019-05-01T17:47:22.000Z,14.72
2019-05-01T17:52:10.000Z,14.53
2019-05-01T17:56:58.000Z,14.33
2019-05-01T18:01:46.000Z,14.09
2019-05-01T18:06:34.000Z,13.88
2019-05-01T18:11:22.000Z,13.72
2019-05-01T18:16:10.000Z,13.59
2019-05-01T18:20:58.000Z,13.48
2019-05-01T18:25:46.000Z,13.33
2019-05-01T18:30:34.000Z,13.14
2019-05-01T18:35:22.000Z,12.97
2019-05-01T18:40:09.000Z,12.82
2019-05-01T18:44:58.000Z,12.72
2019-05-01T18:49:46.000Z,12.61
2019-05-01T18:54:34.000Z,12.50
2019-05-01T18:59:22.000Z,12.40
2019-05-01T19:04:10.000Z,12.31
2019-05-01T19:08:58.000Z,12.21
2019-05-01T19:13:46.000Z,12.11
2019-05-01T19:18:34.000Z,11.97
2019-05-01T19:23:22.000Z,11.79
2019-05-01T19:28:10.000Z,11.55
2019-05-01T19:32:58.000Z,11.27
2019-05-01T19:37:46.000Z,10.99
2019-05-01T19:42:34.000Z,10.70
2019-05-01T19:47:22.000Z,10.40
2019-05-01T19:52:10.000Z,10.10
2019-05-01T19:56:58.000Z,9.85
2019-05-01T20:01:46.000Z,9.59
2019-05-01T20:06:34.000Z,9.34
2019-05-01T20:11:22.000Z,9.12
2019-05-01T20:16:10.000Z,8.93
2019-05-01T20:20:58.000Z,8.76
2019-05-01T20:30:32.000Z,8.38
2019-05-01T20:35:20.000Z,8.17
2019-05-01T20:40:08.000Z,7.98
2019-05-01T20:44:56.000Z,7.79
2019-05-01T20:49:44.000Z,7.60
2019-05-01T20:54:33.000Z,7.41
2019-05-01T20:59:21.000Z,7.27
2019-05-01T21:04:08.000Z,7.15
2019-05-01T21:08:56.000Z,7.00
2019-05-01T21:13:45.000Z,6.85
2019-05-01T21:18:33.000Z,6.69
2019-05-01T21:23:21.000Z,6.53
2019-05-01T21:28:09.000Z,6.40
2019-05-01T21:32:57.000Z,6.26
2019-05-01T21:37:45.000Z,6.14
2019-05-01T21:42:33.000Z,6.01
2019-05-01T21:47:22.000Z,5.86
2019-05-01T21:52:10.000Z,5.70
2019-05-01T21:56:58.000Z,5.54
2019-05-01T22:01:46.000Z,5.40
2019-05-01T22:06:34.000Z,5.28
2019-05-01T22:11:22.000Z,5.21
2019-05-01T22:16:10.000Z,5.12
2019-05-01T22:20:58.000Z,5.04
2019-05-01T22:25:47.000Z,4.93
2019-05-01T22:30:34.000Z,4.85
2019-05-01T22:35:22.000Z,4.76
2019-05-01T22:40:10.000Z,4.66
2019-05-01T22:44:58.000Z,4.59
2019-05-01T22:54:34.000Z,4.42
2019-05-01T22:59:22.000Z,4.33
2019-05-01T23:04:09.000Z,4.24
2019-05-01T23:08:57.000Z,4.17
2019-05-01T23:13:45.000Z,4.09
2019-05-01T23:18:34.000Z,4.02
2019-05-01T23:23:22.000Z,3.93
2019-05-01T23:28:09.000Z,3.89
2019-05-01T23:32:58.000Z,3.87
2019-05-01T23:37:46.000Z,3.85
2019-05-01T23:42:35.000Z,3.83
2019-05-01T23:47:22.000Z,3.85
2019-05-01T23:52:10.000Z,3.87
2019-05-01T23:56:58.000Z,3.89
